createdAt,value
2017-04-11T00:00:43.246Z,0
2017-04-11T00:01:44.485Z,0
2017-04-11T00:02:45.768Z,0
2017-04-11T00:03:47.013Z,0
2017-04-11T00:04:48.250Z,0
2017-04-11T00:05:49.540Z,0
2017-04-11T00:06:50.803Z,0
2017-04-11T00:07:52.043Z,0
2017-04-11T00:08:53.308Z,0
2017-04-11T00:09:54.686Z,0
2017-04-11T00:10:56.005Z,0
2017-04-11T00:11:57.234Z,0
2017-04-11T00:12:58.477Z,0
2017-04-11T00:13:59.742Z,0
2017-04-11T00:15:01.017Z,0
2017-04-11T00:16:02.400Z,0
2017-04-11T00:17:03.631Z,0
2017-04-11T00:18:04.870Z,0
2017-04-11T00:19:06.181Z,0
2017-04-11T00:20:07.420Z,0
2017-04-11T00:21:08.665Z,0
2017-04-11T00:22:10.001Z,0
2017-04-11T00:23:11.249Z,0
2017-04-11T00:24:12.518Z,0
2017-04-11T00:25:13.771Z,0
2017-04-11T00:26:15.009Z,0
2017-04-11T00:27:16.274Z,0
2017-04-11T00:28:17.506Z,0
2017-04-11T00:29:18.896Z,0
2017-04-11T00:30:20.154Z,0
2017-04-11T00:31:21.361Z,0
2017-04-11T00:32:22.615Z,0
2017-04-11T00:33:23.836Z,0
2017-04-11T00:34:25.076Z,0
2017-04-11T00:35:26.317Z,0
2017-04-11T00:36:27.602Z,0
2017-04-11T00:37:28.834Z,0
2017-04-11T00:38:30.087Z,0
2017-04-11T00:39:31.324Z,0
2017-04-11T00:40:32.563Z,0
2017-04-11T00:41:33.904Z,0
2017-04-11T00:42:35.146Z,0
2017-04-11T00:43:36.379Z,0
2017-04-11T00:44:37.617Z,0
2017-04-11T00:45:38.849Z,0
2017-04-11T00:46:40.147Z,0
2017-04-11T00:47:41.452Z,0
2017-04-11T00:48:42.693Z,0
2017-04-11T00:49:43.981Z,0
2017-04-11T00:50:45.197Z,0
2017-04-11T00:51:46.437Z,0
2017-04-11T00:52:47.826Z,0
2017-04-11T00:53:48.972Z,0
2017-04-11T00:54:50.293Z,0
2017-04-11T00:55:51.548Z,0
2017-04-11T00:56:52.779Z,0
2017-04-11T00:57:54.164Z,0
2017-04-11T00:58:55.404Z,0
2017-04-11T00:59:56.643Z,0
2017-04-11T01:00:57.923Z,0
2017-04-11T01:01:59.191Z,0
2017-04-11T01:03:00.395Z,0
2017-04-11T01:04:01.632Z,0
2017-04-11T01:05:02.872Z,0
2017-04-11T01:06:04.112Z,0
2017-04-11T01:07:05.379Z,0
2017-04-11T01:08:06.610Z,0
2017-04-11T01:09:07.877Z,0
2017-04-11T01:10:09.090Z,0
2017-04-11T01:11:10.336Z,0
2017-04-11T01:12:11.706Z,0
2017-04-11T01:13:12.878Z,0
2017-04-11T01:14:14.128Z,0
2017-04-11T01:15:15.373Z,0
2017-04-11T01:16:16.619Z,0
2017-04-11T01:17:17.874Z,0
2017-04-11T01:18:19.098Z,0
2017-04-11T01:19:20.343Z,0
2017-04-11T01:20:21.617Z,0
2017-04-11T01:21:22.930Z,0
2017-04-11T01:22:24.266Z,0
2017-04-11T01:23:25.500Z,0
2017-04-11T01:24:26.739Z,0
2017-04-11T01:25:27.986Z,0
2017-04-11T01:26:29.247Z,0
2017-04-11T01:27:30.502Z,0
2017-04-11T01:28:31.835Z,0
2017-04-11T01:29:33.068Z,0
2017-04-11T01:30:34.327Z,0
2017-04-11T01:31:35.551Z,0
2017-04-11T01:32:36.807Z,0
2017-04-11T01:33:38.062Z,0
2017-04-11T01:34:39.298Z,0
2017-04-11T01:35:40.555Z,0
2017-04-11T01:36:41.769Z,0
2017-04-11T01:37:43.014Z,0
2017-04-11T01:38:44.243Z,0
2017-04-11T01:39:45.584Z,0
2017-04-11T01:40:46.841Z,0
2017-04-11T01:41:48.084Z,0
2017-04-11T01:42:49.337Z,0
2017-04-11T01:43:50.572Z,0
2017-04-11T01:44:51.829Z,0
2017-04-11T01:45:53.089Z,0
2017-04-11T01:46:54.320Z,0
2017-04-11T01:47:55.560Z,0
2017-04-11T01:48:56.794Z,0
2017-04-11T01:49:58.084Z,0
2017-04-11T01:50:59.315Z,0
2017-04-11T01:52:00.595Z,0
2017-04-11T01:53:01.835Z,0
2017-04-11T01:54:03.063Z,0
2017-04-11T01:55:04.392Z,0
2017-04-11T01:56:05.563Z,0
2017-04-11T01:57:06.802Z,0
2017-04-11T01:58:08.048Z,0
2017-04-11T01:59:09.344Z,0
2017-04-11T02:00:10.625Z,0
2017-04-11T02:01:11.867Z,0
2017-04-11T02:02:13.101Z,0
2017-04-11T02:03:14.339Z,0
2017-04-11T02:04:15.691Z,0
2017-04-11T02:05:16.944Z,0
2017-04-11T02:06:18.212Z,0
2017-04-11T02:07:19.441Z,0
2017-04-11T02:08:20.682Z,0
2017-04-11T02:09:21.997Z,0
2017-04-11T02:10:23.236Z,0
2017-04-11T02:11:24.476Z,0
2017-04-11T02:12:25.713Z,0
2017-04-11T02:13:26.954Z,0
2017-04-11T02:14:28.187Z,0
2017-04-11T02:15:29.424Z,0
2017-04-11T02:16:30.693Z,0
2017-04-11T02:17:31.919Z,0
2017-04-11T02:18:33.238Z,0
2017-04-11T02:19:34.578Z,0
2017-04-11T02:20:35.799Z,0
2017-04-11T02:21:37.028Z,0
2017-04-11T02:22:38.341Z,0
2017-04-11T02:23:39.567Z,0
2017-04-11T02:24:40.815Z,0
2017-04-11T02:25:42.056Z,0
2017-04-11T02:26:43.287Z,0
2017-04-11T02:27:44.534Z,0
2017-04-11T02:28:45.777Z,0
2017-04-11T02:29:47.016Z,0
2017-04-11T02:30:48.255Z,0
2017-04-11T02:31:49.481Z,0
2017-04-11T02:32:50.820Z,0
2017-04-11T02:33:52.173Z,0
2017-04-11T02:34:53.440Z,0
2017-04-11T02:35:54.668Z,0
2017-04-11T02:36:55.967Z,0
2017-04-11T02:37:57.218Z,0
2017-04-11T02:38:58.452Z,0
2017-04-11T02:39:59.693Z,0
2017-04-11T02:41:00.942Z,0
2017-04-11T02:42:02.226Z,0
2017-04-11T02:43:03.510Z,0
2017-04-11T02:44:04.725Z,0
2017-04-11T02:45:05.971Z,0
2017-04-11T02:46:07.227Z,0
2017-04-11T02:47:08.458Z,0
2017-04-11T02:48:09.833Z,0
2017-04-11T02:49:11.000Z,0
2017-04-11T02:50:12.253Z,0
2017-04-11T02:51:13.548Z,0
2017-04-11T02:52:14.769Z,0
2017-04-11T02:53:16.012Z,0
2017-04-11T02:54:17.400Z,0
2017-04-11T02:55:18.725Z,0
2017-04-11T02:56:19.942Z,0
2017-04-11T02:57:21.202Z,0
2017-04-11T02:58:22.469Z,0
2017-04-11T02:59:23.708Z,0
2017-04-11T03:00:24.948Z,0
2017-04-11T03:01:26.197Z,0
2017-04-11T03:02:27.503Z,0
2017-04-11T03:03:28.726Z,0
2017-04-11T03:04:29.986Z,0
2017-04-11T03:05:31.236Z,0
2017-04-11T03:06:32.471Z,0
2017-04-11T03:07:33.815Z,0
2017-04-11T03:08:35.057Z,0
2017-04-11T03:09:36.300Z,0
2017-04-11T03:10:37.531Z,0
2017-04-11T03:11:38.800Z,0
2017-04-11T03:12:40.106Z,0
2017-04-11T03:13:41.339Z,0
2017-04-11T03:14:42.581Z,0
2017-04-11T03:15:43.813Z,0
2017-04-11T03:16:45.052Z,0
2017-04-11T03:17:46.297Z,0
2017-04-11T03:18:47.533Z,0
2017-04-11T03:19:48.770Z,0
2017-04-11T03:20:50.099Z,0
2017-04-11T03:21:51.400Z,0
2017-04-11T03:22:52.636Z,0
2017-04-11T03:23:53.904Z,0
2017-04-11T03:24:55.127Z,0
2017-04-11T03:25:56.377Z,0
2017-04-11T03:26:57.627Z,0
2017-04-11T03:27:58.906Z,0
2017-04-11T03:29:00.202Z,0
2017-04-11T03:30:01.471Z,0
2017-04-11T03:31:02.702Z,0
2017-04-11T03:32:04.109Z,0
2017-04-11T03:33:05.485Z,0
2017-04-11T03:34:06.637Z,0
2017-04-11T03:35:07.882Z,0
2017-04-11T03:36:09.121Z,0
2017-04-11T03:37:10.368Z,0
2017-04-11T03:38:11.624Z,0
2017-04-11T03:39:12.835Z,0
2017-04-11T03:40:14.110Z,0
2017-04-11T03:41:15.358Z,0
2017-04-11T03:42:16.590Z,0
2017-04-11T03:43:17.836Z,0
2017-04-11T03:44:19.069Z,0
2017-04-11T03:45:20.311Z,0
2017-04-11T03:46:21.564Z,0
2017-04-11T03:47:22.801Z,0
2017-04-11T03:48:24.044Z,0
2017-04-11T03:49:25.286Z,0
2017-04-11T03:50:26.533Z,0
2017-04-11T03:51:27.793Z,0
2017-04-11T03:52:29.034Z,0
2017-04-11T03:53:30.275Z,0
2017-04-11T03:54:31.544Z,0
2017-04-11T03:55:32.769Z,0
2017-04-11T03:56:34.072Z,0
2017-04-11T03:57:35.330Z,0
2017-04-11T03:58:36.539Z,0
2017-04-11T03:59:37.817Z,0
2017-04-11T04:00:39.026Z,0
2017-04-11T04:01:40.279Z,0
2017-04-11T04:02:41.510Z,0
2017-04-11T04:03:42.792Z,0
2017-04-11T04:04:44.168Z,0
2017-04-11T04:05:45.558Z,0
2017-04-11T04:06:46.946Z,0
2017-04-11T04:07:48.183Z,0
2017-04-11T04:08:49.422Z,0
2017-04-11T04:09:50.668Z,0
2017-04-11T04:10:51.927Z,0
2017-04-11T04:11:53.188Z,0
2017-04-11T04:12:54.427Z,0
2017-04-11T04:13:55.682Z,0
2017-04-11T04:14:56.994Z,0
2017-04-11T04:15:58.228Z,0
2017-04-11T04:16:59.467Z,0
2017-04-11T04:18:00.752Z,0
2017-04-11T04:19:01.991Z,0
2017-04-11T04:20:03.287Z,0
2017-04-11T04:21:04.527Z,0
2017-04-11T04:22:05.767Z,0
2017-04-11T04:23:07.007Z,0
2017-04-11T04:24:08.411Z,0
2017-04-11T04:25:09.693Z,0
2017-04-11T04:26:10.934Z,0
2017-04-11T04:27:12.183Z,0
2017-04-11T04:28:13.418Z,0
2017-04-11T04:29:14.657Z,0
2017-04-11T04:30:15.892Z,0
2017-04-11T04:31:17.135Z,5
2017-04-11T04:32:18.420Z,5
2017-04-11T04:33:19.629Z,5
2017-04-11T04:34:20.858Z,5
2017-04-11T04:35:22.196Z,5
2017-04-11T04:36:23.338Z,5
2017-04-11T04:37:24.655Z,5
2017-04-11T04:38:25.936Z,5
2017-04-11T04:39:27.199Z,5
2017-04-11T04:40:28.424Z,5
2017-04-11T04:41:29.661Z,5
2017-04-11T04:42:30.882Z,5
2017-04-11T04:43:32.155Z,5
2017-04-11T04:44:33.464Z,10
2017-04-11T04:45:34.753Z,10
2017-04-11T04:46:36.019Z,10
2017-04-11T04:47:37.251Z,10
2017-04-11T04:48:38.486Z,10
2017-04-11T04:49:39.737Z,15
2017-04-11T04:50:40.984Z,15
2017-04-11T04:51:42.325Z,15
2017-04-11T04:52:43.554Z,15
2017-04-11T04:53:44.841Z,15
2017-04-11T04:54:46.108Z,15
2017-04-11T04:55:47.341Z,15
2017-04-11T04:56:48.610Z,15
2017-04-11T04:57:49.847Z,20
2017-04-11T04:58:51.086Z,20
2017-04-11T04:59:52.442Z,20
2017-04-11T05:00:53.674Z,20
2017-04-11T05:01:54.907Z,25
2017-04-11T05:02:56.152Z,25
2017-04-11T05:03:57.387Z,25
2017-04-11T05:04:58.628Z,30
2017-04-11T05:05:59.862Z,30
2017-04-11T05:07:01.117Z,30
2017-04-11T05:08:02.333Z,30
2017-04-11T05:09:03.712Z,25
2017-04-11T05:10:04.935Z,25
2017-04-11T05:11:06.170Z,25
2017-04-11T05:12:07.419Z,25
2017-04-11T05:13:08.630Z,25
2017-04-11T05:14:09.860Z,25
2017-04-11T05:15:11.126Z,25
2017-04-11T05:16:12.356Z,25
2017-04-11T05:17:13.686Z,25
2017-04-11T05:18:15.038Z,30
2017-04-11T05:19:16.251Z,30
2017-04-11T05:20:17.492Z,30
2017-04-11T05:21:18.742Z,35
2017-04-11T05:22:19.963Z,35
2017-04-11T05:23:21.204Z,35
2017-04-11T05:24:22.442Z,35
2017-04-11T05:25:23.678Z,35
2017-04-11T05:26:24.916Z,30
2017-04-11T05:27:26.170Z,30
2017-04-11T05:28:27.438Z,35
2017-04-11T05:29:28.646Z,35
2017-04-11T05:30:29.906Z,40
2017-04-11T05:31:31.145Z,45
2017-04-11T05:32:32.382Z,45
2017-04-11T05:33:33.615Z,50
2017-04-11T05:34:34.853Z,50
2017-04-11T05:35:36.154Z,50
2017-04-11T05:36:37.393Z,50
2017-04-11T05:37:38.644Z,55
2017-04-11T05:38:39.939Z,60
2017-04-11T05:39:41.169Z,65
2017-04-11T05:40:42.410Z,65
2017-04-11T05:41:43.768Z,70
2017-04-11T05:42:45.014Z,70
2017-04-11T05:43:46.265Z,70
2017-04-11T05:44:47.482Z,70
2017-04-11T05:45:48.713Z,75
2017-04-11T05:46:49.960Z,70
2017-04-11T05:47:51.195Z,65
2017-04-11T05:48:52.578Z,70
2017-04-11T05:49:53.819Z,70
2017-04-11T05:50:55.061Z,75
2017-04-11T05:51:56.316Z,80
2017-04-11T05:52:57.567Z,85
2017-04-11T05:53:58.797Z,95
2017-04-11T05:55:00.042Z,100
2017-04-11T05:56:01.277Z,105
2017-04-11T05:57:02.616Z,110
2017-04-11T05:58:03.864Z,110
2017-04-11T05:59:05.095Z,105
2017-04-11T06:00:06.481Z,100
2017-04-11T06:01:07.714Z,100
2017-04-11T06:02:09.020Z,105
2017-04-11T06:03:10.242Z,110
2017-04-11T06:04:11.483Z,115
2017-04-11T06:05:12.727Z,115
2017-04-11T06:06:13.990Z,125
2017-04-11T06:07:15.215Z,125
2017-04-11T06:08:16.565Z,125
2017-04-11T06:09:17.797Z,130
2017-04-11T06:10:19.026Z,135
2017-04-11T06:11:20.280Z,130
2017-04-11T06:12:21.526Z,130
2017-04-11T06:13:22.793Z,130
2017-04-11T06:14:24.004Z,120
2017-04-11T06:15:25.250Z,120
2017-04-11T06:16:26.510Z,110
2017-04-11T06:17:27.767Z,115
2017-04-11T06:18:28.968Z,120
2017-04-11T06:19:30.277Z,120
2017-04-11T06:20:31.528Z,120
2017-04-11T06:21:32.875Z,120
2017-04-11T06:22:34.176Z,120
2017-04-11T06:23:35.384Z,110
2017-04-11T06:24:36.670Z,105
2017-04-11T06:25:37.981Z,110
2017-04-11T06:26:39.262Z,105
2017-04-11T06:27:40.529Z,105
2017-04-11T06:28:41.892Z,105
2017-04-11T06:29:43.156Z,100
2017-04-11T06:30:44.399Z,95
2017-04-11T06:31:45.647Z,90
2017-04-11T06:32:46.895Z,95
2017-04-11T06:33:48.143Z,95
2017-04-11T06:34:49.382Z,95
2017-04-11T06:35:50.718Z,95
2017-04-11T06:36:51.996Z,95
2017-04-11T06:37:53.294Z,100
2017-04-11T06:38:54.543Z,100
2017-04-11T06:39:55.832Z,105
2017-04-11T06:40:57.074Z,105
2017-04-11T06:41:58.313Z,105
2017-04-11T06:42:59.549Z,95
2017-04-11T06:44:00.813Z,95
2017-04-11T06:45:02.034Z,100
2017-04-11T06:46:03.290Z,100
2017-04-11T06:47:04.585Z,100
2017-04-11T06:48:05.844Z,100
2017-04-11T06:49:07.084Z,105
2017-04-11T06:50:08.326Z,105
2017-04-11T06:51:09.563Z,105
2017-04-11T06:52:10.811Z,105
2017-04-11T06:53:12.033Z,105
2017-04-11T06:54:13.826Z,105
2017-04-11T06:55:15.060Z,105
2017-04-11T06:56:16.319Z,105
2017-04-11T06:57:17.572Z,110
2017-04-11T06:58:18.879Z,110
2017-04-11T06:59:20.145Z,115
2017-04-11T07:00:21.361Z,115
2017-04-11T07:01:22.594Z,115
2017-04-11T07:02:23.849Z,115
2017-04-11T07:03:25.085Z,115
2017-04-11T07:04:26.431Z,115
2017-04-11T07:05:27.690Z,115
2017-04-11T07:06:28.923Z,115
2017-04-11T07:07:30.185Z,115
2017-04-11T07:08:31.687Z,120
2017-04-11T07:09:33.034Z,120
2017-04-11T07:10:34.297Z,120
2017-04-11T07:11:35.542Z,120
2017-04-11T07:12:36.775Z,120
2017-04-11T07:13:38.030Z,120
2017-04-11T07:14:39.303Z,120
2017-04-11T07:15:40.742Z,115
2017-04-11T07:16:42.032Z,115
2017-04-11T07:17:43.275Z,120
2017-04-11T07:18:44.528Z,120
2017-04-11T07:19:45.791Z,120
2017-04-11T07:20:47.087Z,125
2017-04-11T07:21:48.338Z,125
2017-04-11T07:22:49.583Z,130
2017-04-11T07:23:50.853Z,130
2017-04-11T07:24:52.136Z,135
2017-04-11T07:25:53.371Z,140
2017-04-11T07:26:54.600Z,150
2017-04-11T07:27:55.854Z,160
2017-04-11T07:28:57.082Z,165
2017-04-11T07:29:58.331Z,170
2017-04-11T07:30:59.591Z,175
2017-04-11T07:32:00.811Z,185
2017-04-11T07:33:02.098Z,190
2017-04-11T07:34:03.347Z,210
2017-04-11T07:35:04.586Z,225
2017-04-11T07:36:05.855Z,235
2017-04-11T07:37:07.067Z,250
2017-04-11T07:38:08.325Z,260
2017-04-11T07:39:09.613Z,270
2017-04-11T07:40:10.836Z,280
2017-04-11T07:41:12.074Z,295
2017-04-11T07:42:13.395Z,310
2017-04-11T07:43:14.638Z,325
2017-04-11T07:44:15.887Z,355
2017-04-11T07:45:17.136Z,380
2017-04-11T07:46:18.386Z,390
2017-04-11T07:47:19.630Z,395
2017-04-11T07:48:20.879Z,410
2017-04-11T07:49:22.128Z,420
2017-04-11T07:50:23.385Z,415
2017-04-11T07:51:24.628Z,400
2017-04-11T07:52:25.921Z,385
2017-04-11T07:53:27.138Z,370
2017-04-11T07:54:28.382Z,360
2017-04-11T07:55:29.613Z,345
2017-04-11T07:56:30.918Z,340
2017-04-11T07:57:32.184Z,340
2017-04-11T07:58:33.448Z,360
2017-04-11T07:59:34.706Z,370
2017-04-11T08:00:36.008Z,360
2017-04-11T08:01:37.315Z,350
2017-04-11T08:02:38.629Z,370
2017-04-11T08:03:39.873Z,375
2017-04-11T08:04:41.138Z,360
2017-04-11T08:05:42.373Z,335
2017-04-11T08:06:43.650Z,340
2017-04-11T08:07:44.868Z,340
2017-04-11T08:08:46.131Z,350
2017-04-11T08:09:47.377Z,350
2017-04-11T08:10:48.667Z,340
2017-04-11T08:11:49.927Z,345
2017-04-11T08:12:51.224Z,350
2017-04-11T08:13:52.466Z,345
2017-04-11T08:14:53.704Z,350
2017-04-11T08:15:54.961Z,340
2017-04-11T08:16:56.255Z,315
2017-04-11T08:17:57.573Z,300
2017-04-11T08:18:58.802Z,290
2017-04-11T08:20:00.060Z,290
2017-04-11T08:21:01.308Z,310
2017-04-11T08:22:02.558Z,325
2017-04-11T08:23:03.795Z,355
2017-04-11T08:24:05.105Z,370
2017-04-11T08:25:06.344Z,370
2017-04-11T08:26:07.600Z,355
2017-04-11T08:27:08.896Z,360
2017-04-11T08:28:10.179Z,390
2017-04-11T08:29:11.412Z,410
2017-04-11T08:30:12.671Z,435
2017-04-11T08:31:14.003Z,460
2017-04-11T08:32:15.252Z,505
2017-04-11T08:33:16.505Z,535
2017-04-11T08:34:17.770Z,540
2017-04-11T08:35:19.019Z,560
2017-04-11T08:36:20.278Z,585
2017-04-11T08:37:21.625Z,600
2017-04-11T08:38:22.848Z,615
2017-04-11T08:39:24.397Z,640
2017-04-11T08:40:25.633Z,635
2017-04-11T08:41:27.025Z,625
2017-04-11T08:42:28.325Z,625
2017-04-11T08:43:29.549Z,605
2017-04-11T08:44:30.830Z,595
2017-04-11T08:45:32.057Z,625
2017-04-11T08:46:33.313Z,655
2017-04-11T08:47:34.617Z,695
2017-04-11T08:48:35.922Z,730
2017-04-11T08:49:37.199Z,715
2017-04-11T08:50:38.440Z,680
2017-04-11T08:51:39.704Z,665
2017-04-11T08:52:40.930Z,720
2017-04-11T08:53:42.273Z,745
2017-04-11T08:54:43.537Z,715
2017-04-11T08:55:44.762Z,685
2017-04-11T08:56:46.027Z,700
2017-04-11T08:57:47.244Z,725
2017-04-11T08:58:48.551Z,730
2017-04-11T08:59:49.872Z,710
2017-04-11T09:00:51.094Z,670
2017-04-11T09:01:52.397Z,610
2017-04-11T09:02:53.633Z,590
2017-04-11T09:03:54.889Z,600
2017-04-11T09:04:56.164Z,630
2017-04-11T09:05:57.384Z,670
2017-04-11T09:06:58.688Z,715
2017-04-11T09:07:59.932Z,935
2017-04-11T09:09:01.171Z,2830
2017-04-11T09:10:02.430Z,2755
2017-04-11T09:11:03.731Z,2815
2017-04-11T09:12:04.956Z,2005
2017-04-11T09:13:06.217Z,2905
2017-04-11T09:14:07.494Z,3025
2017-04-11T09:15:08.735Z,1015
2017-04-11T09:16:09.984Z,2030
2017-04-11T09:17:11.257Z,1095
2017-04-11T09:18:12.522Z,1090
2017-04-11T09:19:13.784Z,1080
2017-04-11T09:20:15.026Z,3255
2017-04-11T09:21:16.330Z,2560
2017-04-11T09:22:17.583Z,2080
2017-04-11T09:23:18.840Z,1880
2017-04-11T09:24:20.112Z,1380
2017-04-11T09:25:21.361Z,1370
2017-04-11T09:26:22.833Z,1350
2017-04-11T09:27:24.091Z,2690
2017-04-11T09:28:25.336Z,2275
2017-04-11T09:29:26.596Z,2055
2017-04-11T09:30:27.848Z,1255
2017-04-11T09:31:29.123Z,3095
2017-04-11T09:32:30.480Z,2025
2017-04-11T09:33:31.825Z,2570
2017-04-11T09:34:33.069Z,3145
2017-04-11T09:35:34.336Z,2920
2017-04-11T09:36:35.841Z,2165
2017-04-11T09:37:37.117Z,2965
2017-04-11T09:38:38.358Z,2860
2017-04-11T09:39:39.617Z,2600
2017-04-11T09:40:40.876Z,2555
2017-04-11T09:41:42.225Z,2110
2017-04-11T09:42:43.396Z,2390
2017-04-11T09:43:44.673Z,2375
2017-04-11T09:44:45.935Z,2520
2017-04-11T09:45:47.221Z,2580
2017-04-11T09:46:48.592Z,2780
2017-04-11T09:47:49.863Z,2900
2017-04-11T09:48:51.241Z,2820
2017-04-11T09:49:52.529Z,2820
2017-04-11T09:50:53.778Z,2775
2017-04-11T09:51:55.074Z,2780
2017-04-11T09:52:56.397Z,2975
2017-04-11T09:53:57.608Z,3105
2017-04-11T09:54:58.899Z,2860
2017-04-11T09:56:00.213Z,2790
2017-04-11T09:57:01.486Z,2780
2017-04-11T09:58:02.765Z,2950
2017-04-11T09:59:04.044Z,2975
2017-04-11T10:00:05.283Z,2925
2017-04-11T10:01:06.539Z,2945
2017-04-11T10:02:07.849Z,3070
2017-04-11T10:03:09.107Z,2865
2017-04-11T10:04:10.499Z,1590
2017-04-11T10:05:11.774Z,1705
2017-04-11T10:06:13.129Z,1335
2017-04-11T10:07:14.387Z,1360
2017-04-11T10:08:15.657Z,2095
2017-04-11T10:09:16.915Z,1220
2017-04-11T10:10:18.163Z,1230
2017-04-11T10:11:19.419Z,1170
2017-04-11T10:12:20.830Z,1340
2017-04-11T10:13:22.050Z,2875
2017-04-11T10:14:23.308Z,1805
2017-04-11T10:15:24.567Z,2800
2017-04-11T10:16:25.856Z,2085
2017-04-11T10:17:27.097Z,1090
2017-04-11T10:18:28.414Z,1140
2017-04-11T10:19:29.683Z,1080
2017-04-11T10:20:30.963Z,1015
2017-04-11T10:21:32.222Z,795
2017-04-11T10:22:33.483Z,935
2017-04-11T10:23:34.800Z,950
2017-04-11T10:24:36.156Z,925
2017-04-11T10:25:37.481Z,970
2017-04-11T10:26:38.821Z,790
2017-04-11T10:27:40.071Z,720
2017-04-11T10:28:41.332Z,680
2017-04-11T10:29:42.593Z,720
2017-04-11T10:30:43.925Z,735
2017-04-11T10:31:45.281Z,670
2017-04-11T10:32:46.634Z,690
2017-04-11T10:33:47.884Z,560
2017-04-11T10:34:49.135Z,510
2017-04-11T10:35:50.416Z,505
2017-04-11T10:36:51.673Z,505
2017-04-11T10:37:52.939Z,605
2017-04-11T10:38:54.172Z,530
2017-04-11T10:39:55.409Z,495
2017-04-11T10:40:56.717Z,490
2017-04-11T10:41:57.965Z,505
2017-04-11T10:42:59.214Z,505
2017-04-11T10:44:00.512Z,455
2017-04-11T10:45:01.747Z,430
2017-04-11T10:46:03.013Z,420
2017-04-11T10:47:04.371Z,440
2017-04-11T10:48:05.616Z,480
2017-04-11T10:49:06.932Z,475
2017-04-11T10:50:08.175Z,510
2017-04-11T10:51:09.439Z,610
2017-04-11T10:52:10.690Z,735
2017-04-11T10:53:11.964Z,800
2017-04-11T10:54:13.215Z,815
2017-04-11T10:55:14.510Z,805
2017-04-11T10:56:15.765Z,720
2017-04-11T10:57:17.006Z,700
2017-04-11T10:58:18.262Z,645
2017-04-11T10:59:19.511Z,590
2017-04-11T11:00:20.792Z,650
2017-04-11T11:01:22.029Z,730
2017-04-11T11:02:23.338Z,760
2017-04-11T11:03:24.652Z,770
2017-04-11T11:04:25.916Z,705
2017-04-11T11:05:27.181Z,640
2017-04-11T11:06:28.547Z,630
2017-04-11T11:07:29.739Z,595
2017-04-11T11:08:31.027Z,555
2017-04-11T11:09:32.257Z,545
2017-04-11T11:10:33.498Z,545
2017-04-11T11:11:34.833Z,580
2017-04-11T11:12:36.085Z,600
2017-04-11T11:13:37.361Z,630
2017-04-11T11:14:38.596Z,630
2017-04-11T11:15:39.834Z,685
2017-04-11T11:16:41.088Z,735
2017-04-11T11:17:42.345Z,735
2017-04-11T11:18:43.615Z,680
2017-04-11T11:19:44.939Z,660
2017-04-11T11:20:46.194Z,680
2017-04-11T11:21:47.434Z,600
2017-04-11T11:22:48.684Z,525
2017-04-11T11:23:49.940Z,505
2017-04-11T11:24:51.197Z,560
2017-04-11T11:25:52.483Z,610
2017-04-11T11:26:53.729Z,570
2017-04-11T11:27:55.019Z,580
2017-04-11T11:28:56.266Z,605
2017-04-11T11:29:57.570Z,630
2017-04-11T11:30:58.991Z,595
2017-04-11T11:32:00.223Z,600
2017-04-11T11:33:01.485Z,670
2017-04-11T11:34:02.751Z,650
2017-04-11T11:35:04.010Z,620
2017-04-11T11:36:05.264Z,645
2017-04-11T11:37:06.502Z,600
2017-04-11T11:38:07.760Z,540
2017-04-11T11:39:09.024Z,490
2017-04-11T11:40:10.272Z,525
2017-04-11T11:41:11.530Z,620
2017-04-11T11:42:12.794Z,735
2017-04-11T11:43:14.029Z,655
2017-04-11T11:44:15.326Z,660
2017-04-11T11:45:16.525Z,610
2017-04-11T11:46:17.772Z,540
2017-04-11T11:47:19.024Z,525
2017-04-11T11:48:20.355Z,545
2017-04-11T11:49:21.595Z,585
2017-04-11T11:50:22.862Z,645
2017-04-11T11:51:24.139Z,590
2017-04-11T11:52:25.415Z,650
2017-04-11T11:53:26.684Z,690
2017-04-11T11:54:27.908Z,655
2017-04-11T11:55:29.147Z,595
2017-04-11T11:56:30.520Z,565
2017-04-11T11:57:31.754Z,580
2017-04-11T11:58:32.980Z,605
2017-04-11T11:59:34.219Z,585
2017-04-11T12:00:35.478Z,590
2017-04-11T12:01:36.728Z,605
2017-04-11T12:02:37.977Z,580
2017-04-11T12:03:39.211Z,545
2017-04-11T12:04:40.449Z,555
2017-04-11T12:05:41.727Z,585
2017-04-11T12:06:42.950Z,585
2017-04-11T12:07:44.315Z,595
2017-04-11T12:08:45.466Z,610
2017-04-11T12:09:46.728Z,590
2017-04-11T12:10:48.023Z,615
2017-04-11T12:11:49.265Z,650
2017-04-11T12:12:50.553Z,655
2017-04-11T12:13:51.804Z,620
2017-04-11T12:14:53.060Z,620
2017-04-11T12:15:54.457Z,600
2017-04-11T12:16:55.695Z,570
2017-04-11T12:17:56.983Z,535
2017-04-11T12:18:58.252Z,540
2017-04-11T12:19:59.472Z,560
2017-04-11T12:21:00.751Z,545
2017-04-11T12:22:01.988Z,490
2017-04-11T12:23:03.324Z,420
2017-04-11T12:24:04.631Z,350
2017-04-11T12:25:05.918Z,295
2017-04-11T12:26:07.153Z,260
2017-04-11T12:27:08.375Z,235
2017-04-11T12:28:09.659Z,215
2017-04-11T12:29:11.109Z,200
2017-04-11T12:30:12.361Z,185
2017-04-11T12:31:13.613Z,180
2017-04-11T12:32:14.896Z,190
2017-04-11T12:33:16.129Z,175
2017-04-11T12:34:17.360Z,190
2017-04-11T12:35:18.661Z,205
2017-04-11T12:36:19.906Z,185
2017-04-11T12:37:21.163Z,160
2017-04-11T12:38:22.412Z,160
2017-04-11T12:39:23.661Z,175
2017-04-11T12:40:24.919Z,210
2017-04-11T12:41:26.173Z,210
2017-04-11T12:42:27.432Z,220
2017-04-11T12:43:28.682Z,235
2017-04-11T12:44:29.933Z,235
2017-04-11T12:45:31.190Z,225
2017-04-11T12:46:32.538Z,210
2017-04-11T12:47:33.849Z,200
2017-04-11T12:48:35.118Z,205
2017-04-11T12:49:36.362Z,215
2017-04-11T12:50:37.605Z,225
2017-04-11T12:51:38.905Z,230
2017-04-11T12:52:40.163Z,235
2017-04-11T12:53:41.414Z,250
2017-04-11T12:54:42.670Z,255
2017-04-11T12:55:43.912Z,275
2017-04-11T12:56:45.164Z,285
2017-04-11T12:57:46.408Z,295
2017-04-11T12:58:47.644Z,300
2017-04-11T12:59:48.913Z,305
2017-04-11T13:00:50.166Z,285
2017-04-11T13:01:51.386Z,265
2017-04-11T13:02:52.651Z,245
2017-04-11T13:03:53.892Z,225
2017-04-11T13:04:55.131Z,210
2017-04-11T13:05:56.423Z,190
2017-04-11T13:06:57.655Z,165
2017-04-11T13:07:58.895Z,150
2017-04-11T13:09:00.174Z,140
2017-04-11T13:10:01.396Z,130
2017-04-11T13:11:02.797Z,130
2017-04-11T13:12:04.053Z,135
2017-04-11T13:13:05.287Z,135
2017-04-11T13:14:06.514Z,140
2017-04-11T13:15:07.754Z,135
2017-04-11T13:16:08.990Z,140
2017-04-11T13:17:10.274Z,135
2017-04-11T13:18:11.511Z,140
2017-04-11T13:19:12.798Z,145
2017-04-11T13:20:14.318Z,140
2017-04-11T13:21:15.558Z,150
2017-04-11T13:22:16.800Z,160
2017-04-11T13:23:18.189Z,155
2017-04-11T13:24:19.438Z,145
2017-04-11T13:25:20.674Z,160
2017-04-11T13:26:21.912Z,180
2017-04-11T13:27:23.155Z,195
2017-04-11T13:28:24.404Z,200
2017-04-11T13:29:25.660Z,230
2017-04-11T13:30:26.910Z,290
2017-04-11T13:31:28.228Z,290
2017-04-11T13:32:29.465Z,240
2017-04-11T13:33:30.760Z,205
2017-04-11T13:34:32.007Z,215
2017-04-11T13:35:33.270Z,225
2017-04-11T13:36:34.607Z,230
2017-04-11T13:37:35.887Z,235
2017-04-11T13:38:37.131Z,235
2017-04-11T13:39:38.386Z,240
2017-04-11T13:40:39.630Z,245
2017-04-11T13:41:40.950Z,240
2017-04-11T13:42:42.180Z,255
2017-04-11T13:43:43.477Z,295
2017-04-11T13:44:44.758Z,360
2017-04-11T13:45:46.007Z,390
2017-04-11T13:46:47.250Z,385
2017-04-11T13:47:48.509Z,375
2017-04-11T13:48:49.757Z,330
2017-04-11T13:49:51.005Z,280
2017-04-11T13:50:52.372Z,235
2017-04-11T13:51:53.623Z,225
2017-04-11T13:52:54.860Z,235
2017-04-11T13:53:56.125Z,245
2017-04-11T13:54:57.373Z,260
2017-04-11T13:55:58.719Z,290
2017-04-11T13:56:59.958Z,330
2017-04-11T13:58:01.252Z,335
2017-04-11T13:59:02.657Z,335
2017-04-11T14:00:03.927Z,310
2017-04-11T14:01:05.364Z,260
2017-04-11T14:02:06.603Z,235
2017-04-11T14:03:07.854Z,200
2017-04-11T14:04:09.139Z,180
2017-04-11T14:05:10.394Z,165
2017-04-11T14:06:11.661Z,155
2017-04-11T14:07:12.968Z,145
2017-04-11T14:08:14.288Z,145
2017-04-11T14:09:15.532Z,145
2017-04-11T14:10:16.767Z,145
2017-04-11T14:11:18.036Z,150
2017-04-11T14:12:19.393Z,150
2017-04-11T14:13:20.726Z,175
2017-04-11T14:14:21.954Z,180
2017-04-11T14:15:23.212Z,170
2017-04-11T14:16:24.593Z,175
2017-04-11T14:17:25.848Z,170
2017-04-11T14:18:27.280Z,175
2017-04-11T14:19:28.568Z,175
2017-04-11T14:20:29.789Z,165
2017-04-11T14:21:31.244Z,160
2017-04-11T14:22:32.602Z,155
2017-04-11T14:23:33.847Z,170